Latest Weather Observations for Beaudesert AWS

IDQ60901

Issued at 6:15 pm EST Monday 24 November 2014 (issued every 10 minutes, with the page automatically refreshed every 10 minutes)

About weather observations | Map of Brisbane area stations | Latest observations for Brisbane area | Other Formats
Station Details ID: 040983 Name: BEAUDESERT DRUMLEY STREET Lat: -27.97 Lon: 152.99 Height: 47.81 m
Data from the previous 72 hours. | See also: Recent months at Beaudesert AWS
Date/Time
EST
Tmp

°C
App
Tmp
°C
Dew
Point
°C
Rel
Hum
%
Delta-T

°C
Wind Press
QNH
hPa
Press
MSL
hPa
Rain
since
9 am
mm
Dir
 
Spd
km/h
Gust
km/h
Spd
kts
Gust
kts
24/06:00pm 26.8 26.2 17.6 57 5.8 N 17 26 9 14 1012.4 1012.2 0.0
24/05:30pm 28.3 27.7 17.5 52 6.8 N 17 28 9 15 1012.0 1011.8 0.0
24/05:00pm 29.2 28.0 17.1 48 7.6 N 19 32 10 17 1011.7 1011.5 0.0
24/04:30pm 30.5 29.3 16.1 41 9.0 NNE 17 32 9 17 1011.3 1011.1 0.0
24/04:00pm 32.3 31.3 15.7 36 10.4 N 15 30 8 16 1011.2 1011.0 0.0
24/03:30pm 32.8 31.3 15.3 34 10.9 N 17 28 9 15 1011.4 1011.2 0.0
24/03:00pm 32.8 31.2 14.9 34 11.1 N 17 28 9 15 1011.8 1011.6 0.0
24/02:30pm 33.5 32.3 14.0 30 11.9 N 13 24 7 13 1012.0 1011.8 0.0
24/02:00pm 34.1 32.9 14.1 30 12.3 N 13 22 7 12 1012.6 1012.4 0.0
24/01:30pm 34.0 33.8 13.5 29 12.5 N 7 19 4 10 1013.1 1012.9 0.0
24/01:00pm 34.4 34.5 13.8 29 12.6 N 6 15 3 8 1013.6 1013.4 0.0
24/12:30pm 33.2 31.6 12.8 29 12.2 NNW 13 22 7 12 1014.1 1013.9 0.0
24/12:00pm 32.7 32.2 13.8 31 11.5 NNE 9 19 5 10 1014.7 1014.5 0.0
24/11:30am 32.1 31.6 13.8 33 11.1 NNE 9 15 5 8 1015.3 1015.1 0.0
24/11:00am 31.5 31.0 15.0 36 10.2 NNW 11 17 6 9 1015.9 1015.7 0.0
24/10:30am 30.7 31.0 15.9 40 9.2 WNW 9 19 5 10 1016.4 1016.2 0.0
24/10:00am 30.4 31.2 16.4 43 8.8 NW 7 15 4 8 1016.8 1016.6 0.0
24/09:30am 29.4 29.8 16.2 44 8.2 NNW 9 19 5 10 1017.4 1017.2 0.0
24/09:00am 28.5 28.4 16.1 47 7.7 N 11 20 6 11 1017.6 1017.4 0.0
24/08:30am 27.5 27.7 16.8 52 6.7 N 11 20 6 11 1017.7 1017.5 0.0
24/08:00am 27.4 27.7 17.0 53 6.5 N 11 17 6 9 1017.9 1017.7 0.0
24/07:30am 26.5 27.6 18.1 60 5.3 NNW 9 15 5 8 1018.1 1017.9 0.0
24/07:00am 25.4 26.0 17.8 62 4.8 N 11 22 6 12 1018.0 1017.8 0.0
24/06:30am 24.8 25.7 18.3 67 4.1 N 11 20 6 11 1017.8 1017.6 0.0
24/06:00am 23.9 25.6 18.5 72 3.4 N 7 11 4 6 1017.6 1017.4 0.0
24/05:30am 23.1 25.8 18.6 76 2.8 NNE 2 4 1 2 1017.5 1017.3 0.0
24/05:00am 22.3 24.9 18.5 79 2.4 N 2 6 1 3 1017.3 1017.1 0.0
24/04:30am 22.7 24.8 18.9 79 2.4 N 6 11 3 6 1016.9 1016.7 0.0
24/04:00am 23.0 25.5 19.0 78 2.5 NNE 4 9 2 5 1016.6 1016.4 0.0
24/03:30am 23.6 25.6 19.1 76 2.9 NNE 7 15 4 8 1016.5 1016.3 0.0
24/03:00am 24.1 25.7 19.2 74 3.1 N 9 17 5 9 1016.4 1016.2 0.0
24/02:30am 24.3 25.1 19.1 73 3.3 N 13 22 7 12 1016.5 1016.3 0.0
24/02:00am 24.5 27.4 19.8 75 3.0 N 4 9 2 5 1016.4 1016.2 0.0
24/01:30am 24.2 27.4 19.7 76 2.9 NE 2 6 1 3 1016.2 1016.0 0.0
24/01:00am 24.1 27.3 19.8 77 2.8 E 2 4 1 2 1016.4 1016.2 0.0
24/12:30am 23.8 27.2 19.3 76 2.9 CALM 0 0 0 0 1016.9 1016.7 0.0
24/12:00am 23.8 26.8 19.3 76 2.9 E 2 4 1 2 1017.0 1016.8 0.0
 
Date/Time
EST
Tmp

°C
App
Tmp
°C
Dew
Point
°C
Rel
Hum
%
Delta-T

°C
Wind Press
QNH
hPa
Press
MSL
hPa
Rain
since
9 am
mm
Dir
 
Spd
km/h
Gust
km/h
Spd
kts
Gust
kts
23/11:30pm 24.0 26.6 19.3 75 3.0 ENE 4 7 2 4 1017.2 1017.0 0.0
23/11:00pm 24.1 26.8 19.4 75 3.0 E 4 6 2 3 1017.2 1017.0 0.0
23/10:30pm 23.6 26.1 19.1 76 2.9 E 4 6 2 3 1017.0 1016.8 0.0
23/10:00pm 23.8 26.6 18.9 74 3.1 E 2 4 1 2 1016.9 1016.7 0.0
23/09:30pm 24.1 26.4 18.5 71 3.5 ENE 4 6 2 3 1016.8 1016.6 0.0
23/09:00pm 24.4 27.3 18.1 68 4.0 CALM 0 0 0 0 1016.7 1016.5 0.0
23/08:30pm 25.1 27.2 18.1 65 4.4 NE 4 7 2 4 1016.4 1016.2 0.0
23/08:00pm 25.5 27.1 16.9 59 5.3 ENE 4 6 2 3 1016.3 1016.1 0.0
23/07:30pm 26.3 26.9 15.4 51 6.6 NE 6 9 3 5 1015.9 1015.7 0.0
23/07:00pm 26.5 27.1 15.2 49 6.8 NE 6 11 3 6 1015.2 1015.0 0.0
23/06:30pm 27.1 27.2 15.5 49 7.1 NNE 9 15 5 8 1014.9 1014.7 0.0
23/06:00pm 27.7 27.5 15.7 48 7.4 NNE 11 20 6 11 1014.3 1014.1 0.0
23/05:30pm 28.5 28.7 15.8 46 7.8 N 9 22 5 12 1013.5 1013.3 0.0
23/05:00pm 29.6 30.3 17.1 47 7.9 N 9 17 5 9 1013.2 1013.0 0.0
23/04:30pm 30.2 30.4 17.6 46 8.0 N 13 24 7 13 1013.2 1013.0 0.0
23/04:00pm 31.3 31.2 17.9 44 8.6 N 15 24 8 13 1013.1 1012.9 0.0
23/03:30pm 32.2 31.8 18.0 42 9.2 N 17 28 9 15 1013.3 1013.1 0.0
23/03:00pm 33.3 33.2 17.9 40 10.0 N 15 24 8 13 1012.8 1012.6 0.0
23/02:30pm 34.9 35.3 18.9 39 10.5 N 15 28 8 15 1013.3 1013.1 0.0
23/02:00pm 34.5 35.1 18.5 38 10.5 N 13 22 7 12 1013.5 1013.3 0.0
23/01:30pm 34.1 33.9 18.6 40 10.1 N 17 32 9 17 1013.8 1013.6 0.0
23/01:00pm 35.7 36.6 19.2 38 10.9 N 13 20 7 11 1014.0 1013.8 0.0
23/12:30pm 34.6 36.0 17.8 37 10.9 NNE 7 19 4 10 1014.4 1014.2 0.0
23/12:00pm 34.0 34.8 18.1 39 10.3 NNE 11 17 6 9 1015.1 1014.9 0.0
23/11:30am 33.1 34.0 18.5 42 9.5 WNW 11 19 6 10 1015.7 1015.5 0.0
23/11:00am 31.9 32.7 18.1 43 8.9 W 11 20 6 11 1016.2 1016.0 0.0
23/10:30am 31.0 32.5 18.0 45 8.4 NW 7 17 4 9 1016.7 1016.5 0.0
23/10:00am 30.5 32.5 19.2 51 7.4 NW 7 13 4 7 1017.0 1016.8 0.0
23/09:30am 30.1 32.3 19.5 53 6.9 NNW 7 13 4 7 1017.5 1017.3 0.0
23/09:00am 28.3 30.1 19.5 59 5.7 NW 9 17 5 9 1017.5 1017.3 0.0
23/08:30am 27.8 30.4 20.1 63 5.0 NNW 6 11 3 6 1017.5 1017.3 0.0
23/08:00am 28.5 31.6 21.0 64 5.0 NW 6 13 3 7 1017.7 1017.5 0.0
23/07:30am 26.4 28.6 20.3 69 4.0 N 9 15 5 8 1017.6 1017.4 0.0
23/07:00am 25.6 28.2 20.4 73 3.4 NNW 7 11 4 6 1017.7 1017.5 0.0
23/06:30am 25.0 27.5 20.3 75 3.1 N 7 11 4 6 1017.5 1017.3 0.0
23/06:00am 24.8 27.3 20.3 76 2.9 N 7 13 4 7 1016.9 1016.7 0.0
23/05:30am 24.7 27.3 20.4 77 2.8 NNE 7 11 4 6 1016.5 1016.3 0.0
23/05:00am 24.6 27.0 20.1 76 2.9 NNE 7 13 4 7 1015.9 1015.7 0.0
23/04:30am 24.6 27.3 20.3 77 2.8 NNE 6 11 3 6 1015.6 1015.4 0.0
23/04:00am 24.6 27.3 20.3 77 2.8 NE 6 11 3 6 1015.3 1015.1 0.0
23/03:30am 24.7 27.5 20.4 77 2.8 NNE 6 13 3 7 1014.9 1014.7 0.0
23/03:00am 24.6 27.4 20.5 78 2.7 ENE 6 9 3 5 1014.7 1014.5 0.0
23/02:30am 24.9 27.6 20.6 77 2.8 NE 7 15 4 8 1014.6 1014.4 0.0
23/02:00am 25.0 28.3 20.7 77 2.8 NE 4 7 2 4 1014.7 1014.5 0.0
23/01:30am 24.8 28.0 20.5 77 2.8 ENE 4 9 2 5 1014.8 1014.6 0.0
23/01:00am 24.9 28.1 20.4 76 2.9 ENE 4 7 2 4 1015.0 1014.8 0.0
23/12:30am 24.9 28.1 20.4 76 2.9 ENE 4 9 2 5 1015.3 1015.1 0.0
23/12:00am 24.7 27.4 20.2 76 2.9 ENE 6 11 3 6 1015.3 1015.1 0.0
 
Date/Time
EST
Tmp

°C
App
Tmp
°C
Dew
Point
°C
Rel
Hum
%
Delta-T

°C
Wind Press
QNH
hPa
Press
MSL
hPa
Rain
since
9 am
mm
Dir
 
Spd
km/h
Gust
km/h
Spd
kts
Gust
kts
22/11:30pm 24.8 28.3 20.3 76 2.9 ENE 2 7 1 4 1015.5 1015.3 0.0
22/11:00pm 24.4 27.4 20.1 77 2.8 E 4 6 2 3 1015.7 1015.5 0.0
22/10:30pm 24.5 27.5 20.0 76 2.9 E 4 7 2 4 1015.6 1015.4 0.0
22/10:00pm 25.0 27.7 20.3 75 3.1 ENE 6 11 3 6 1015.5 1015.3 0.0
22/09:30pm 25.1 27.7 20.1 74 3.3 ENE 6 9 3 5 1015.5 1015.3 0.0
22/09:00pm 25.4 28.4 20.0 72 3.5 ENE 4 7 2 4 1015.2 1015.0 0.0
22/08:30pm 25.7 28.4 20.3 72 3.5 NE 6 15 3 8 1014.9 1014.7 0.0
22/08:00pm 26.1 28.8 20.2 70 3.9 ENE 6 11 3 6 1014.2 1014.0 0.0
22/07:30pm 26.7 29.2 20.3 68 4.2 NNE 7 11 4 6 1014.0 1013.8 0.0
22/07:00pm 27.3 29.5 20.4 66 4.5 NNE 9 17 5 9 1013.3 1013.1 0.0
22/06:30pm 27.9 30.2 20.7 65 4.8 N 9 15 5 8 1012.7 1012.5 0.0
22/06:00pm 29.1 31.3 20.5 59 5.7 NNE 9 22 5 12 1012.2 1012.0 0.0
22/05:30pm 30.1 31.3 20.6 56 6.3 N 15 24 8 13 1011.8 1011.6 0.0
22/05:00pm 31.0 32.0 20.3 53 7.1 N 15 26 8 14 1011.1 1010.9 0.0
22/04:30pm 32.2 32.9 20.5 50 7.8 N 17 28 9 15 1010.7 1010.5 0.0
22/04:00pm 33.1 33.2 20.3 47 8.5 N 20 30 11 16 1010.4 1010.2 0.0
22/03:30pm 33.6 34.1 20.0 44 9.0 N 17 30 9 16 1010.4 1010.2 0.0
22/03:00pm 34.7 34.8 20.3 43 9.7 N 20 33 11 18 1010.2 1010.0 0.0
22/02:30pm 36.5 37.1 20.3 38 10.9 N 17 28 9 15 1010.2 1010.0 0.0
22/02:00pm 36.5 37.1 18.6 35 11.8 N 13 24 7 13 1010.6 1010.4 0.0
22/01:30pm 36.4 37.7 17.5 32 12.3 NNW 7 13 4 7 1011.0 1010.8 0.0
22/01:00pm 35.9 36.8 17.6 34 11.9 NNW 9 17 5 9 1011.5 1011.3 0.0
22/12:30pm 36.3 38.1 18.4 35 11.7 NNW 6 15 3 8 1011.8 1011.6 0.0
22/12:00pm 34.5 35.5 17.7 37 10.9 NNW 9 17 5 9 1012.6 1012.4 0.0
22/11:30am 33.9 35.2 18.4 40 10.1 NNW 9 15 5 8 1013.1 1012.9 0.0
22/11:00am 33.6 34.5 18.5 40 9.8 NNW 11 20 6 11 1013.5 1013.3 0.0
22/10:30am 33.0 34.6 19.1 43 9.1 NW 9 19 5 10 1014.0 1013.8 0.0
22/10:00am 31.6 33.6 19.2 47 8.1 NNW 7 19 4 10 1014.3 1014.1 0.0
22/09:30am 30.6 32.7 19.3 51 7.4 WNW 7 17 4 9 1014.6 1014.4 0.0
22/09:00am 29.4 30.5 18.8 53 6.9 NNW 11 20 6 11 1014.8 1014.6 0.0
22/08:30am 28.9 29.9 18.7 54 6.6 NNW 11 22 6 12 1015.0 1014.8 0.0
22/08:00am 27.6 29.3 19.4 61 5.3 NW 9 17 5 9 1015.1 1014.9 0.0
22/07:30am 26.4 28.6 19.3 65 4.6 NNW 6 9 3 5 1015.2 1015.0 0.0
22/07:00am 25.5 28.3 19.6 70 3.8 N 4 7 2 4 1015.1 1014.9 0.0
22/06:30am 25.8 28.7 20.6 73 3.4 N 6 9 3 5 1014.8 1014.6 0.0
22/06:00am 24.5 27.7 20.4 78 2.7 N 4 7 2 4 1014.4 1014.2 0.0
22/05:30am 24.0 27.1 20.3 80 2.4 N 4 7 2 4 1014.2 1014.0 0.0
22/05:00am 23.6 27.4 20.1 81 2.3 CALM 0 0 0 0 1013.8 1013.6 0.0
22/04:30am 23.8 27.6 20.1 80 2.4 CALM 0 4 0 2 1013.2 1013.0 0.0
22/04:00am 23.8 27.6 20.1 80 2.4 CALM 0 4 0 2 1012.9 1012.7 0.0
22/03:30am 23.8 27.8 20.5 82 2.2 CALM 0 6 0 3 1012.4 1012.2 0.0
22/03:00am 23.9 27.5 20.6 82 2.2 NE 2 4 1 2 1012.3 1012.1 0.0
22/02:30am 24.1 27.7 20.6 81 2.3 E 2 6 1 3 1012.1 1011.9 0.0
22/02:00am 24.5 28.7 21.0 81 2.3 CALM 0 0 0 0 1012.2 1012.0 0.0
22/01:30am 24.7 28.1 21.0 80 2.4 N 4 7 2 4 1011.9 1011.7 0.0
22/01:00am 24.9 28.2 21.4 81 2.3 NNE 6 9 3 5 1011.9 1011.7 0.0
22/12:30am 25.0 28.2 21.3 80 2.4 N 6 9 3 5 1012.2 1012.0 0.0
22/12:00am 25.1 28.4 21.4 80 2.5 NE 6 9 3 5 1012.2 1012.0 0.0
 
Date/Time
EST
Tmp

°C
App
Tmp
°C
Dew
Point
°C
Rel
Hum
%
Delta-T

°C
Wind Press
QNH
hPa
Press
MSL
hPa
Rain
since
9 am
mm
Dir
 
Spd
km/h
Gust
km/h
Spd
kts
Gust
kts
21/11:30pm 25.1 28.8 21.4 80 2.5 NE 4 9 2 5 1012.6 1012.4 0.0
21/11:00pm 25.1 29.0 21.2 79 2.6 NE 2 6 1 3 1013.3 1013.1 0.0
21/10:30pm 25.1 28.2 21.0 78 2.7 ENE 6 7 3 4 1013.2 1013.0 0.0
21/10:00pm 25.5 29.1 21.2 77 2.8 N 4 9 2 5 1013.7 1013.5 0.0
21/09:30pm 25.6 29.1 21.1 76 3.0 N 4 7 2 4 1013.8 1013.6 0.0
21/09:00pm 25.5 28.6 21.0 76 3.0 ENE 6 9 3 5 1013.6 1013.4 0.0
21/08:30pm 25.6 28.7 21.1 76 3.0 NNE 6 11 3 6 1013.4 1013.2 0.0
21/08:00pm 25.6 28.7 21.1 76 3.0 NNE 6 11 3 6 1012.6 1012.4 0.0
21/07:30pm 25.7 28.1 20.9 75 3.2 NNE 9 15 5 8 1012.6 1012.4 0.0
21/07:00pm 26.0 27.5 20.6 72 3.5 NE 13 26 7 14 1012.2 1012.0 0.0
21/06:30pm 26.6 27.9 20.2 68 4.2 NNE 13 24 7 13 1011.8 1011.6 0.0

Latest Capital City Observations: Canberra | Sydney | Melbourne | Brisbane | Adelaide | Perth | Hobart | Darwin

Other Formats:

Comma delimited format used in spreadsheet applications
http://www.bom.gov.au/fwo/IDQ60901/IDQ60901.95575.axf

JavaScript Object Notation format (JSON) in row-major order
http://www.bom.gov.au/fwo/IDQ60901/IDQ60901.95575.json